Time;durP1;ratioP1;P1;durP2;ratioP2;P2;SDS_P1;SDS_P2;PMS_P1;PMS_P2;Temp;Humidity;BMP_temperature;BMP_pressure;BME280_temperature;BME280_humidity;BME280_pressure;Samples;Min_cycle;Max_cycle;Signal;HPM_P1;HPM_P2
2020/12/03 00:00:29;;;;;;;124.18;48.50;;;;;;;3.84;100.00;100510.22;5016886;28;20041;-83
2020/12/03 00:02:55;;;;;;;125.38;47.88;;;;;;;3.82;100.00;100504.19;5017732;28;20046;-83
2020/12/03 00:05:21;;;;;;;115.90;48.92;;;;;;;3.80;100.00;100505.31;5007161;28;20042;-83
2020/12/03 00:07:47;;;;;;;115.85;52.10;;;;;;;3.81;100.00;100491.88;5015666;28;20822;-83
2020/12/03 00:10:13;;;;;;;122.82;53.03;;;;;;;3.83;100.00;100499.75;5012798;28;20034;-83
2020/12/03 00:12:38;;;;;;;122.95;55.55;;;;;;;3.79;100.00;100488.50;5010855;28;20050;-82
2020/12/03 00:15:04;;;;;;;130.85;55.17;;;;;;;3.78;100.00;100486.84;5009341;28;20065;-83
2020/12/03 00:17:29;;;;;;;125.28;56.80;;;;;;;3.78;100.00;100481.53;5009264;28;20400;-83
2020/12/03 00:19:54;;;;;;;124.35;51.92;;;;;;;3.76;100.00;100480.81;5014821;28;20448;-83
2020/12/03 00:22:20;;;;;;;121.85;51.67;;;;;;;3.76;100.00;100462.22;5014630;28;20065;-83
2020/12/03 00:24:45;;;;;;;118.93;51.65;;;;;;;3.74;100.00;100463.31;5014672;28;20084;-83
2020/12/03 00:27:13;;;;;;;119.72;45.33;;;;;;;3.72;100.00;100466.13;5012038;28;20574;-83
2020/12/03 00:29:38;;;;;;;122.25;54.75;;;;;;;3.73;100.00;100464.31;5013945;28;20037;-83
2020/12/03 00:32:05;;;;;;;131.23;57.78;;;;;;;3.75;100.00;100465.03;5014556;28;20030;-83
2020/12/03 00:34:31;;;;;;;123.30;52.00;;;;;;;3.72;100.00;100458.16;5018470;28;20030;-82
2020/12/03 00:36:56;;;;;;;127.47;52.25;;;;;;;3.71;100.00;100451.19;5013904;28;20065;-83
2020/12/03 00:39:22;;;;;;;128.85;54.28;;;;;;;3.71;100.00;100447.66;5012445;28;20038;-83
2020/12/03 00:41:51;;;;;;;127.00;52.58;;;;;;;3.74;100.00;100442.09;5013802;28;20053;-83
2020/12/03 00:44:18;;;;;;;127.13;54.63;;;;;;;3.68;100.00;100446.09;5012566;28;20141;-84
2020/12/03 00:46:45;;;;;;;130.27;50.00;;;;;;;3.66;100.00;100441.91;5012438;28;20065;-83
2020/12/03 00:49:13;;;;;;;125.85;52.55;;;;;;;3.69;100.00;100447.81;5014048;28;20076;-83
2020/12/03 00:51:39;;;;;;;128.63;54.22;;;;;;;3.70;100.00;100451.28;5006845;28;20515;-83
2020/12/03 00:54:04;;;;;;;135.35;57.08;;;;;;;3.68;100.00;100443.44;5019640;28;20041;-82
2020/12/03 00:56:30;;;;;;;128.05;53.35;;;;;;;3.67;100.00;100431.16;5015792;28;20455;-82
2020/12/03 00:58:55;;;;;;;133.50;49.97;;;;;;;3.67;100.00;100430.31;5036150;28;20053;-84
2020/12/03 01:01:21;;;;;;;141.73;57.58;;;;;;;3.68;100.00;100427.53;5027725;28;20087;-83
2020/12/03 01:03:48;;;;;;;139.50;59.67;;;;;;;3.72;100.00;100420.16;5012187;28;20137;-83
2020/12/03 01:06:14;;;;;;;134.43;58.92;;;;;;;3.68;100.00;100427.53;5009558;28;20050;-82
2020/12/03 01:08:39;;;;;;;139.43;59.65;;;;;;;3.69;100.00;100428.38;5006082;28;20045;-81
2020/12/03 01:11:05;;;;;;;128.45;49.83;;;;;;;3.66;100.00;100412.72;5016568;28;20068;-83
2020/12/03 01:13:31;;;;;;;140.40;56.53;;;;;;;3.68;100.00;100408.09;5014447;28;21585;-82
2020/12/03 01:15:56;;;;;;;141.80;60.20;;;;;;;3.67;100.00;100399.31;5006296;28;20571;-82
2020/12/03 01:18:22;;;;;;;146.32;60.95;;;;;;;3.71;100.00;100390.13;5011648;28;20049;-82
2020/12/03 01:20:48;;;;;;;144.05;57.63;;;;;;;3.67;100.00;100382.56;5027011;28;20497;-83
2020/12/03 01:23:14;;;;;;;148.02;62.50;;;;;;;3.70;100.00;100382.28;5007758;28;20057;-83
2020/12/03 01:25:40;;;;;;;156.15;62.55;;;;;;;3.67;100.00;100377.25;5006859;28;20581;-83
2020/12/03 01:28:05;;;;;;;142.60;58.58;;;;;;;3.67;100.00;100378.09;5016496;28;20030;-83
2020/12/03 01:30:31;;;;;;;152.43;56.88;;;;;;;3.66;100.00;100367.63;5014336;28;20057;-83
2020/12/03 01:32:57;;;;;;;154.65;63.22;;;;;;;3.68;100.00;100369.13;5016377;28;20241;-83
2020/12/03 01:35:22;;;;;;;155.48;59.65;;;;;;;3.69;100.00;100370.84;5018002;28;20059;-83
2020/12/03 01:37:49;;;;;;;150.73;56.08;;;;;;;3.67;100.00;100364.81;5017432;28;20038;-83
2020/12/03 01:40:17;;;;;;;154.02;55.78;;;;;;;3.67;100.00;100364.81;5017694;28;20034;-82
2020/12/03 01:42:43;;;;;;;139.93;55.47;;;;;;;3.67;100.00;100351.53;5016382;28;20052;-83
2020/12/03 01:45:46;;;;;;;146.38;57.47;;;;;;;3.71;100.00;100352.97;5017859;28;20124;-83
2020/12/03 01:48:35;;;;;;;147.50;54.92;;;;;;;3.68;100.00;100352.38;5015737;28;20057;-83
2020/12/03 01:51:03;;;;;;;156.48;59.75;;;;;;;3.68;100.00;100347.91;5011506;28;20038;-83
2020/12/03 01:53:28;;;;;;;146.40;57.03;;;;;;;3.68;100.00;100347.91;5015524;28;20045;-83
2020/12/03 01:55:55;;;;;;;141.57;52.50;;;;;;;3.66;100.00;100335.78;5029662;28;20046;-83
2020/12/03 01:58:42;;;;;;;145.65;58.10;;;;;;;3.69;100.00;100338.16;5013138;28;20042;-83
2020/12/03 02:01:09;;;;;;;152.90;57.47;;;;;;;3.70;100.00;100340.66;5024294;28;20111;-83
2020/12/03 02:03:43;;;;;;;151.30;58.83;;;;;;;3.72;100.00;100338.72;5012398;28;20053;-83
2020/12/03 02:06:17;;;;;;;151.23;64.05;;;;;;;3.76;100.00;100342.78;5008066;28;20076;-83
2020/12/03 02:08:42;;;;;;;136.07;48.97;;;;;;;3.74;100.00;100334.16;5007199;28;20717;-83
2020/12/03 02:11:08;;;;;;;149.70;58.28;;;;;;;3.76;100.00;100328.69;5001301;28;20158;-83
2020/12/03 02:13:33;;;;;;;144.05;54.83;;;;;;;3.75;100.00;100330.50;5005932;28;20038;-83
2020/12/03 02:15:58;;;;;;;129.48;51.72;;;;;;;3.75;100.00;100319.88;5006942;28;20045;-82
2020/12/03 02:18:24;;;;;;;140.05;55.92;;;;;;;3.77;100.00;100314.44;5005267;28;20124;-83
2020/12/03 02:20:49;;;;;;;140.80;56.33;;;;;;;3.77;100.00;100315.31;5010634;28;20050;-83
2020/12/03 02:23:17;;;;;;;144.48;59.50;;;;;;;3.79;100.00;100301.88;5006030;28;20050;-83
2020/12/03 02:25:42;;;;;;;141.27;58.67;;;;;;;3.81;100.00;100295.47;5008213;28;20034;-83
2020/12/03 02:28:08;;;;;;;139.20;55.63;;;;;;;3.79;100.00;100294.75;5007082;28;20386;-83
2020/12/03 02:30:34;;;;;;;133.65;55.38;;;;;;;3.79;100.00;100284.13;5007423;28;20068;-83
2020/12/03 02:33:00;;;;;;;127.18;53.53;;;;;;;3.80;100.00;100279.69;5010642;28;20531;-83
2020/12/03 02:35:26;;;;;;;136.68;55.85;;;;;;;3.82;100.00;100275.06;5010970;28;20056;-83
2020/12/03 02:37:52;;;;;;;140.38;62.10;;;;;;;3.81;100.00;100268.94;5013908;28;20042;-83
2020/12/03 02:40:17;;;;;;;130.30;55.50;;;;;;;3.81;100.00;100268.94;5006093;28;20042;-84
2020/12/03 02:42:43;;;;;;;128.30;53.10;;;;;;;3.83;100.00;100261.69;5008948;28;20111;-85
2020/12/03 02:45:08;;;;;;;125.13;57.25;;;;;;;3.84;100.00;100257.22;5009160;28;20038;-84
2020/12/03 02:47:34;;;;;;;121.72;52.10;;;;;;;3.82;100.00;100254.66;4990481;28;20538;-84
2020/12/03 02:50:00;;;;;;;121.80;49.17;;;;;;;3.82;100.00;100257.31;5023605;28;20048;-84
2020/12/03 02:52:26;;;;;;;124.65;50.15;;;;;;;3.80;100.00;100239.88;5022782;28;20130;-84
2020/12/03 02:54:53;;;;;;;118.35;50.15;;;;;;;3.81;100.00;100245.03;5001794;28;20125;-84
2020/12/03 02:57:20;;;;;;;124.45;55.33;;;;;;;3.83;100.00;100244.91;5006970;28;20060;-84
2020/12/03 02:59:45;;;;;;;129.43;54.60;;;;;;;3.82;100.00;100238.75;5012098;28;20067;-83
2020/12/03 03:02:11;;;;;;;132.98;55.00;;;;;;;3.83;100.00;100231.66;5009240;28;20106;-84
2020/12/03 03:04:36;;;;;;;128.98;52.47;;;;;;;3.84;100.00;100230.66;5012132;28;20042;-83
2020/12/03 03:07:02;;;;;;;135.18;54.92;;;;;;;3.84;100.00;100226.19;5000910;28;20046;-84
2020/12/03 03:09:27;;;;;;;132.20;58.40;;;;;;;3.84;100.00;100220.88;5010019;28;20042;-84
2020/12/03 03:11:56;;;;;;;121.45;48.15;;;;;;;3.84;100.00;100215.56;5020434;28;20050;-83
2020/12/03 03:14:22;;;;;;;123.28;51.58;;;;;;;3.83;100.00;100216.56;5008224;28;20632;-83
2020/12/03 03:16:48;;;;;;;127.10;55.65;;;;;;;3.84;100.00;100204.94;5009286;28;20084;-83
2020/12/03 03:19:17;;;;;;;124.82;53.88;;;;;;;3.83;100.00;100208.59;5007054;28;20073;-84
2020/12/03 03:21:42;;;;;;;130.02;57.38;;;;;;;3.86;100.00;100201.34;5006939;28;20058;-85
2020/12/03 03:24:08;;;;;;;125.22;53.42;;;;;;;3.84;100.00;100194.34;5004837;28;20039;-84
2020/12/03 03:26:34;;;;;;;124.70;50.95;;;;;;;3.87;100.00;100197.69;5022833;28;20079;-84
2020/12/03 03:28:59;;;;;;;125.88;48.85;;;;;;;3.86;100.00;100182.75;5010450;28;20496;-84
2020/12/03 03:31:25;;;;;;;125.38;48.95;;;;;;;3.84;100.00;100178.41;4992932;28;20049;-84
2020/12/03 03:33:51;;;;;;;122.80;52.28;;;;;;;3.85;100.00;100179.25;5013294;28;20050;-84
2020/12/03 03:36:17;;;;;;;123.13;50.33;;;;;;;3.86;100.00;100172.16;5025186;28;20042;-85
2020/12/03 03:38:42;;;;;;;134.85;50.40;;;;;;;3.84;100.00;100165.13;5013547;28;20084;-84
2020/12/03 03:41:08;;;;;;;129.77;56.55;;;;;;;3.84;100.00;100151.88;5013675;28;20500;-84
2020/12/03 03:43:33;;;;;;;128.95;53.50;;;;;;;3.85;100.00;100158.00;5006095;28;20104;-84
2020/12/03 03:45:59;;;;;;;125.18;55.40;;;;;;;3.86;100.00;100161.53;5009227;28;20038;-83
2020/12/03 03:48:24;;;;;;;125.55;49.05;;;;;;;3.86;100.00;100158.88;5003496;28;20038;-84
2020/12/03 03:50:50;;;;;;;125.38;50.88;;;;;;;3.86;100.00;100156.22;5009489;28;20061;-84
2020/12/03 03:53:15;;;;;;;121.30;52.97;;;;;;;3.89;100.00;100147.97;5010122;28;20041;-84
2020/12/03 03:55:41;;;;;;;122.97;53.40;;;;;;;3.88;100.00;100140.97;5009547;28;20038;-84
2020/12/03 03:58:10;;;;;;;127.43;54.58;;;;;;;3.89;100.00;100132.06;5005080;28;20073;-83
2020/12/03 04:00:46;;;;;;;120.50;46.40;;;;;;;3.87;100.00;100129.53;5002924;28;20085;-84
2020/12/03 04:03:14;;;;;;;124.50;53.63;;;;;;;3.90;100.00;100126.59;5005057;28;20137;-83
2020/12/03 04:05:47;;;;;;;122.60;50.92;;;;;;;3.88;100.00;100133.00;5008180;28;20080;-84
2020/12/03 04:08:14;;;;;;;119.93;50.30;;;;;;;3.90;100.00;100134.56;5002905;28;20038;-84
2020/12/03 04:10:41;;;;;;;118.70;48.53;;;;;;;3.91;100.00;100125.59;5023503;28;20084;-84
2020/12/03 04:13:06;;;;;;;116.57;47.60;;;;;;;3.90;100.00;100120.44;5007609;28;20030;-83
2020/12/03 04:15:32;;;;;;;115.45;45.05;;;;;;;3.91;100.00;100124.78;5005866;28;20026;-84
2020/12/03 04:17:57;;;;;;;113.35;46.95;;;;;;;3.89;100.00;100121.44;5009299;28;20041;-84
2020/12/03 04:20:22;;;;;;;126.20;55.35;;;;;;;3.94;100.00;100108.56;5004989;28;20398;-84
2020/12/03 04:22:48;;;;;;;114.90;44.80;;;;;;;3.93;100.00;100112.22;5011244;28;20133;-83
2020/12/03 04:25:14;;;;;;;118.32;48.90;;;;;;;3.95;100.00;100107.59;5010173;28;20078;-83
2020/12/03 04:27:40;;;;;;;117.30;48.17;;;;;;;3.94;100.00;100103.25;5014937;28;20042;-84
2020/12/03 04:30:07;;;;;;;106.22;45.80;;;;;;;3.95;100.00;100111.09;5006946;28;20041;-84
2020/12/03 04:32:33;;;;;;;113.35;48.10;;;;;;;3.96;100.00;100102.16;5012357;28;20042;-84
2020/12/03 04:34:59;;;;;;;111.75;51.45;;;;;;;3.99;100.00;100101.88;5010417;28;20151;-83
2020/12/03 04:37:24;;;;;;;114.00;45.28;;;;;;;3.97;100.00;100098.53;5007708;28;20512;-84
2020/12/03 04:39:50;;;;;;;108.95;48.92;;;;;;;3.99;100.00;100101.88;5010300;28;20034;-84
2020/12/03 04:42:24;;;;;;;109.07;47.70;;;;;;;3.98;100.00;100100.19;5005829;28;20037;-84
2020/12/03 04:44:53;;;;;;;106.15;48.35;;;;;;;4.00;100.00;100095.59;5008358;28;20041;-84
2020/12/03 04:47:43;;;;;;;108.60;45.20;;;;;;;4.01;100.00;100086.66;5005693;28;20045;-83
2020/12/03 04:50:18;;;;;;;105.40;45.15;;;;;;;4.00;100.00;100081.47;5009266;28;20034;-83
2020/12/03 04:53:08;;;;;;;104.38;47.70;;;;;;;4.01;100.00;100078.69;5006315;28;20081;-83
2020/12/03 04:55:50;;;;;;;102.05;49.72;;;;;;;4.01;100.00;100078.69;5005577;28;20202;-84
2020/12/03 04:58:39;;;;;;;95.47;39.17;;;;;;;3.98;100.00;100073.66;5008792;28;20041;-84
2020/12/03 05:01:20;;;;;;;93.95;42.08;;;;;;;4.00;100.00;100062.88;5011194;28;20049;-83
2020/12/03 05:04:01;;;;;;;99.40;45.83;;;;;;;4.01;100.00;100067.22;5009563;28;20038;-83
2020/12/03 05:06:41;;;;;;;103.07;47.53;;;;;;;4.00;100.00;100054.91;5009040;28;20396;-83
2020/12/03 05:09:10;;;;;;;99.20;46.20;;;;;;;4.01;100.00;100056.59;5003824;28;20053;-83
2020/12/03 05:11:42;;;;;;;93.13;45.22;;;;;;;4.00;100.00;100054.91;5007697;28;20112;-84
2020/12/03 05:14:45;;;;;;;95.47;45.95;;;;;;;4.04;100.00;100051.00;5013683;28;20069;-83
2020/12/03 05:17:31;;;;;;;94.63;39.63;;;;;;;4.01;100.00;100052.13;5006627;28;20046;-84
2020/12/03 05:20:12;;;;;;;94.13;42.60;;;;;;;4.02;100.00;100042.34;5008480;28;20080;-83
2020/12/03 05:22:39;;;;;;;90.22;41.03;;;;;;;4.03;100.00;100028.13;5011718;28;20059;-83
2020/12/03 05:25:14;;;;;;;86.05;38.63;;;;;;;4.03;100.00;100039.56;5013226;28;20064;-83
2020/12/03 05:27:40;;;;;;;87.43;39.47;;;;;;;4.04;100.00;100016.50;5011209;28;20026;-83
2020/12/03 05:30:07;;;;;;;98.72;47.25;;;;;;;4.05;100.00;100018.16;5008106;28;20053;-84
2020/12/03 05:32:33;;;;;;;87.53;42.13;;;;;;;4.04;100.00;100009.38;5011748;28;20057;-83
2020/12/03 05:34:59;;;;;;;87.45;37.38;;;;;;;4.04;100.00;100001.41;5012332;28;20046;-84
2020/12/03 05:37:27;;;;;;;96.25;41.40;;;;;;;4.07;100.00;100008.25;5008191;28;20153;-85
2020/12/03 05:39:55;;;;;;;89.68;41.53;;;;;;;4.06;100.00;99990.66;5008172;28;20042;-84
2020/12/03 05:42:28;;;;;;;88.65;41.42;;;;;;;4.05;100.00;99991.63;5000906;28;20188;-84
2020/12/03 05:44:56;;;;;;;94.78;37.47;;;;;;;4.08;100.00;99986.03;5009848;28;20046;-85
2020/12/03 05:47:35;;;;;;;91.40;38.55;;;;;;;4.05;100.00;99979.16;5000297;28;20148;-83
2020/12/03 05:50:07;;;;;;;;;;;;;;;4.05;100.00;99984.47;5011761;28;20048;-84
2020/12/03 05:52:34;;;;;;;85.10;40.08;;;;;;;3.99;100.00;99985.06;4991541;28;19926;-84
2020/12/03 05:55:13;;;;;;;96.38;41.45;;;;;;;4.00;100.00;99970.81;4992578;28;20405;-83
2020/12/03 05:57:43;;;;;;;94.13;40.97;;;;;;;4.01;100.00;99959.22;4972784;28;20096;-84
2020/12/03 06:00:12;;;;;;;96.55;42.55;;;;;;;4.03;100.00;99956.44;4995584;28;20082;-84
2020/12/03 06:02:51;;;;;;;92.80;39.93;;;;;;;4.02;100.00;99960.03;4999002;28;20050;-84
2020/12/03 06:05:41;;;;;;;94.72;41.88;;;;;;;4.05;100.00;99952.63;4996382;28;20130;-84
2020/12/03 06:08:25;;;;;;;86.80;39.35;;;;;;;4.05;100.00;99949.97;4993982;28;20465;-84
2020/12/03 06:11:10;;;;;;;85.07;38.33;;;;;;;4.06;100.00;99949.00;4965042;28;20046;-83
2020/12/03 06:13:57;;;;;;;88.22;40.60;;;;;;;4.06;100.00;99935.72;4969329;28;20039;-84
2020/12/03 06:16:38;;;;;;;90.20;42.90;;;;;;;4.07;100.00;99939.22;4982236;28;20134;-84
2020/12/03 06:19:33;;;;;;;90.93;43.50;;;;;;;4.09;100.00;99931.13;4991546;28;20046;-84
2020/12/03 06:22:11;;;;;;;87.13;41.28;;;;;;;4.09;100.00;99925.81;4982766;28;20038;-85
2020/12/03 06:25:21;;;;;;;87.43;40.38;;;;;;;4.10;100.00;99923.00;5008332;28;20042;-84
2020/12/03 06:27:58;;;;;;;79.50;36.15;;;;;;;4.10;100.00;99922.16;4976451;28;20093;-83
2020/12/03 06:30:30;;;;;;;82.15;37.15;;;;;;;4.09;100.00;99913.38;4983000;28;20046;-83
2020/12/03 06:33:21;;;;;;;86.55;41.92;;;;;;;4.11;100.00;99910.56;4999070;28;20045;-83
2020/12/03 06:36:10;;;;;;;81.93;37.67;;;;;;;4.10;100.00;99907.06;5012235;28;20113;-84
2020/12/03 06:38:52;;;;;;;84.30;42.75;;;;;;;4.12;100.00;99910.41;5001893;28;20099;-84
2020/12/03 06:41:31;;;;;;;81.82;38.40;;;;;;;4.11;100.00;99905.25;5017649;28;20129;-84
2020/12/03 06:44:34;;;;;;;86.43;42.57;;;;;;;4.11;100.00;99911.38;5032509;28;20053;-85
2020/12/03 06:47:16;;;;;;;84.05;38.75;;;;;;;4.11;100.00;99906.06;5012605;28;20080;-84
2020/12/03 06:50:06;;;;;;;93.47;43.05;;;;;;;4.10;100.00;99901.75;5013239;28;20108;-85
2020/12/03 06:52:53;;;;;;;78.60;35.88;;;;;;;4.11;100.00;99907.91;5016648;28;20071;-85
2020/12/03 06:55:30;;;;;;;76.80;36.13;;;;;;;4.11;100.00;99905.25;5013482;28;20041;-87
2020/12/03 06:58:08;;;;;;;73.15;36.90;;;;;;;4.09;100.00;99897.44;5012782;28;20058;-85
2020/12/03 07:01:10;;;;;;;75.90;35.10;;;;;;;4.10;100.00;99899.09;5015543;28;20050;-87
2020/12/03 07:03:47;;;;;;;75.80;34.40;;;;;;;4.11;100.00;99902.59;5013694;28;20132;-87
2020/12/03 07:06:43;;;;;;;68.70;33.33;;;;;;;4.13;100.00;99900.63;5032594;28;20597;-86
2020/12/03 07:09:30;;;;;;;71.93;34.03;;;;;;;4.12;100.00;99897.16;5015657;28;20599;-85
2020/12/03 07:12:10;;;;;;;72.80;39.58;;;;;;;4.14;100.00;99883.72;5011158;28;20030;-86
2020/12/03 07:14:54;;;;;;;71.15;32.72;;;;;;;4.13;100.00;99885.53;5016703;28;20485;-86
2020/12/03 07:17:59;;;;;;;65.18;33.03;;;;;;;4.14;100.00;99886.38;5015266;28;20038;-86
2020/12/03 07:20:45;;;;;;;67.65;34.00;;;;;;;4.13;100.00;99879.38;5028288;28;20045;-87
2020/12/03 07:23:18;;;;;;;67.82;33.78;;;;;;;4.13;100.00;99885.53;4976408;28;20092;-85
2020/12/03 07:25:45;;;;;;;67.75;32.67;;;;;;;4.15;100.00;99878.25;5011564;28;20042;-86
2020/12/03 07:28:32;;;;;;;71.03;34.03;;;;;;;4.14;100.00;99881.06;5020768;28;20061;-86
2020/12/03 07:31:00;;;;;;;67.65;34.33;;;;;;;4.14;100.00;99873.91;4992144;28;20054;-86
2020/12/03 07:33:56;;;;;;;72.93;38.53;;;;;;;4.15;100.00;99864.16;5014845;28;20145;-86
2020/12/03 07:36:52;;;;;;;66.63;33.17;;;;;;;4.11;100.00;99854.78;5015927;28;20281;-86
2020/12/03 07:39:21;;;;;;;75.80;36.67;;;;;;;4.10;100.00;99859.28;5017186;28;20523;-86
2020/12/03 07:41:55;;;;;;;70.22;34.78;;;;;;;4.11;100.00;99866.25;5012867;28;20037;-86
2020/12/03 07:44:26;;;;;;;73.30;34.50;;;;;;;4.09;100.00;99851.47;5012957;28;20136;-86
2020/12/03 07:46:54;;;;;;;71.22;33.47;;;;;;;4.06;100.00;99856.06;5010021;28;20121;-86
2020/12/03 07:49:49;;;;;;;65.75;32.33;;;;;;;4.08;100.00;99855.91;5014677;28;20060;-85
2020/12/03 07:52:30;;;;;;;74.55;35.53;;;;;;;4.07;100.00;99851.59;5029881;28;20508;-86
2020/12/03 07:55:21;;;;;;;64.72;34.22;;;;;;;4.02;100.00;99849.38;4993302;28;20065;-85
2020/12/03 07:57:48;;;;;;;64.93;32.55;;;;;;;4.03;100.00;99848.41;5015689;28;20034;-87
2020/12/03 08:00:49;;;;;;;72.90;33.45;;;;;;;4.02;100.00;99840.56;5016015;28;20037;-85
2020/12/03 08:03:50;;;;;;;62.53;30.70;;;;;;;4.01;100.00;99849.53;5015591;28;20077;-86
2020/12/03 08:06:30;;;;;;;65.25;31.83;;;;;;;3.99;100.00;99844.34;4954897;28;20039;-85
2020/12/03 08:09:17;;;;;;;66.28;32.60;;;;;;;4.00;100.00;99847.84;4993202;28;20076;-86
2020/12/03 08:11:57;;;;;;;70.43;32.50;;;;;;;4.00;100.00;99838.06;5011446;28;20038;-86
2020/12/03 08:14:28;;;;;;;60.97;30.13;;;;;;;4.00;100.00;99839.88;5012054;28;20050;-86
2020/12/03 08:16:58;;;;;;;66.82;33.58;;;;;;;4.01;100.00;99834.44;5016514;28;20056;-86
2020/12/03 08:19:27;;;;;;;62.55;30.85;;;;;;;4.00;100.00;99832.75;5010137;28;20042;-86
2020/12/03 08:21:53;;;;;;;59.97;29.55;;;;;;;4.00;100.00;99830.13;5015829;28;20045;-86
2020/12/03 08:24:22;;;;;;;65.00;31.38;;;;;;;4.01;100.00;99823.81;5012618;28;20042;-86
2020/12/03 08:26:48;;;;;;;68.18;33.03;;;;;;;4.01;100.00;99821.16;5016531;28;20057;-86
2020/12/03 08:29:26;;;;;;;51.28;28.83;;;;;;;4.01;100.00;99817.66;5028544;28;20046;-86
2020/12/03 08:31:51;;;;;;;59.50;32.55;;;;;;;4.02;100.00;99820.16;4978481;28;20400;-86
2020/12/03 08:34:16;;;;;;;60.20;30.42;;;;;;;4.03;100.00;99819.19;5015288;28;20042;-86
2020/12/03 08:36:42;;;;;;;62.35;31.52;;;;;;;4.00;100.00;99808.00;5027597;28;20088;-86
2020/12/03 08:39:09;;;;;;;65.00;32.55;;;;;;;3.99;100.00;99812.50;5000939;23;20500;-86
2020/12/03 08:41:34;;;;;;;58.58;30.40;;;;;;;3.97;100.00;99810.97;4986584;28;20132;-86
2020/12/03 08:44:04;;;;;;;53.75;29.77;;;;;;;3.96;100.00;99809.31;4964434;28;20501;-86
2020/12/03 08:46:32;;;;;;;55.15;28.83;;;;;;;3.95;100.00;99811.13;4959589;28;20042;-84
2020/12/03 08:48:57;;;;;;;50.85;30.45;;;;;;;3.96;100.00;99802.16;4979002;28;20057;-86
2020/12/03 08:51:23;;;;;;;50.50;27.63;;;;;;;3.94;100.00;99784.72;4978507;28;20047;-86
2020/12/03 08:53:49;;;;;;;51.05;27.00;;;;;;;3.91;100.00;99783.19;4985625;28;20043;-86
2020/12/03 08:56:20;;;;;;;52.63;28.48;;;;;;;3.93;100.00;99769.78;4973817;28;20057;-85
2020/12/03 08:59:05;;;;;;;57.97;30.75;;;;;;;3.95;100.00;99767.81;4980151;28;20409;-86
2020/12/03 09:01:38;;;;;;;47.88;25.70;;;;;;;3.89;100.00;99765.75;4980936;28;20113;-86
2020/12/03 09:04:05;;;;;;;45.75;25.40;;;;;;;3.86;100.00;99766.88;4974480;28;20070;-85
2020/12/03 09:06:32;;;;;;;41.63;22.73;;;;;;;3.82;100.00;99761.00;4987254;28;20061;-85
2020/12/03 09:09:01;;;;;;;44.17;25.38;;;;;;;3.84;100.00;99752.91;4989842;28;20443;-84
2020/12/03 09:11:31;;;;;;;;;;;;;;;3.83;100.00;99756.56;4987715;28;20038;-86
2020/12/03 09:13:57;;;;;;;;;;;;;;;3.77;100.00;99751.81;4980425;28;19914;-85
2020/12/03 09:16:26;;;;;;;42.30;22.00;;;;;;;3.70;100.00;99754.22;4984460;28;20038;-84
2020/12/03 09:18:52;;;;;;;45.28;24.17;;;;;;;3.73;100.00;99755.75;4989213;28;20042;-86
2020/12/03 09:21:29;;;;;;;42.92;24.55;;;;;;;3.74;100.00;99752.09;4987655;28;20181;-85
2020/12/03 09:23:56;;;;;;;43.30;24.40;;;;;;;3.75;100.00;99754.63;4987432;28;20154;-85
2020/12/03 09:26:32;;;;;;;39.58;22.40;;;;;;;3.73;100.00;99745.97;4984030;28;20038;-85
2020/12/03 09:29:01;;;;;;;38.75;20.40;;;;;;;3.74;100.00;99742.34;4988005;28;20049;-88
2020/12/03 09:31:30;;;;;;;40.30;24.02;;;;;;;3.74;100.00;99733.53;4982325;28;20053;-84
2020/12/03 09:33:57;;;;;;;37.78;21.48;;;;;;;3.72;100.00;99722.25;4989486;28;20050;-86
2020/12/03 09:36:23;;;;;;;37.90;22.02;;;;;;;3.74;100.00;99726.44;4987251;28;20049;-85
2020/12/03 09:38:49;;;;;;;35.58;20.38;;;;;;;3.71;100.00;99721.41;4988071;28;20046;-86
2020/12/03 09:41:24;;;;;;;38.13;22.65;;;;;;;3.74;100.00;99710.50;4977199;28;20436;-85
2020/12/03 09:43:53;;;;;;;35.13;20.63;;;;;;;3.71;100.00;99702.84;4987649;28;20074;-86
2020/12/03 09:46:24;;;;;;;34.78;21.58;;;;;;;3.75;100.00;99701.56;4987290;28;20098;-86
2020/12/03 09:48:51;;;;;;;34.83;19.23;;;;;;;3.76;100.00;99707.69;4990416;28;20049;-86
2020/12/03 09:51:19;;;;;;;32.22;19.30;;;;;;;3.76;100.00;99703.22;4989280;28;20140;-85
2020/12/03 09:53:45;;;;;;;34.17;20.35;;;;;;;3.79;100.00;99697.59;4990316;28;20509;-84
2020/12/03 09:56:11;;;;;;;29.88;17.75;;;;;;;3.81;100.00;99695.66;4992531;28;20124;-86
2020/12/03 09:58:36;;;;;;;30.98;18.02;;;;;;;3.80;100.00;99694.00;4989136;28;20038;-86
2020/12/03 10:01:06;;;;;;;28.30;16.27;;;;;;;3.79;100.00;99686.16;4992433;28;20496;-86
2020/12/03 10:03:49;;;;;;;31.50;18.42;;;;;;;3.81;100.00;99685.03;4983741;28;20510;-85
2020/12/03 10:06:39;;;;;;;28.60;14.82;;;;;;;3.80;100.00;99672.75;4991642;28;20046;-84
2020/12/03 10:09:32;;;;;;;31.38;18.42;;;;;;;3.83;100.00;99674.28;4999942;28;20101;-85
2020/12/03 10:12:19;;;;;;;30.08;18.23;;;;;;;3.83;100.00;99661.03;4996409;28;20523;-86
2020/12/03 10:15:22;;;;;;;28.42;14.98;;;;;;;3.82;100.00;99664.63;4988592;28;20046;-86
2020/12/03 10:18:04;;;;;;;27.40;15.77;;;;;;;3.83;100.00;99659.19;4964406;28;20038;-85
2020/12/03 10:20:32;;;;;;;31.40;15.52;;;;;;;3.81;100.00;99642.56;4990730;28;20035;-86
2020/12/03 10:23:40;;;;;;;29.45;14.27;;;;;;;3.81;100.00;99639.91;5004104;28;20042;-86
2020/12/03 10:26:11;;;;;;;30.65;18.17;;;;;;;3.82;100.00;99648.72;4977180;28;20492;-86
2020/12/03 10:28:46;;;;;;;29.58;16.35;;;;;;;3.83;100.00;99632.66;4980573;28;20064;-86
2020/12/03 10:31:12;;;;;;;31.58;19.13;;;;;;;3.86;100.00;99628.88;4984030;28;20062;-86
2020/12/03 10:33:39;;;;;;;29.17;16.63;;;;;;;3.88;100.00;99626.03;5003761;28;20049;-86
2020/12/03 10:36:11;;;;;;;29.40;15.35;;;;;;;3.81;100.00;99618.69;4974096;28;20042;-85
2020/12/03 10:38:48;;;;;;;29.17;15.85;;;;;;;3.86;100.00;99606.81;4986743;28;20568;-85
2020/12/03 10:41:16;;;;;;;29.30;17.30;;;;;;;3.84;100.00;99605.13;4989620;28;20109;-86
2020/12/03 10:43:48;;;;;;;30.65;17.95;;;;;;;3.85;100.00;99597.97;4973940;28;20052;-85
2020/12/03 10:46:22;;;;;;;27.90;14.93;;;;;;;3.82;100.00;99593.81;4990647;28;20544;-87
2020/12/03 10:48:51;;;;;;;35.92;17.90;;;;;;;3.86;100.00;99594.38;4990878;28;20043;-86
2020/12/03 10:51:19;;;;;;;32.25;17.80;;;;;;;3.88;100.00;99583.59;4999326;28;20042;-85
2020/12/03 10:53:47;;;;;;;30.77;19.23;;;;;;;3.87;100.00;99571.31;4993315;28;20085;-84
2020/12/03 10:56:15;;;;;;;32.70;17.48;;;;;;;3.88;100.00;99568.50;4992789;28;20026;-85
2020/12/03 10:59:10;;;;;;;28.42;16.92;;;;;;;3.88;100.00;99568.50;4985652;28;20133;-85
2020/12/03 11:01:37;;;;;;;32.17;19.38;;;;;;;3.91;100.00;99568.19;4991303;28;20591;-85
2020/12/03 11:04:11;;;;;;;30.52;17.52;;;;;;;3.90;100.00;99560.38;4973916;28;20404;-86
2020/12/03 11:06:37;;;;;;;27.55;14.85;;;;;;;3.87;100.00;99555.38;4987965;28;20026;-84
2020/12/03 11:09:04;;;;;;;28.65;18.40;;;;;;;3.90;100.00;99552.44;4974962;28;20039;-86
2020/12/03 11:11:41;;;;;;;30.52;18.92;;;;;;;3.93;100.00;99541.50;4972606;28;20050;-85
2020/12/03 11:14:14;;;;;;;29.15;18.00;;;;;;;3.99;100.00;99538.25;4987050;28;20188;-85
2020/12/03 11:16:48;;;;;;;31.48;18.00;;;;;;;3.93;100.00;99530.88;5001511;28;20045;-85
2020/12/03 11:19:17;;;;;;;26.50;16.02;;;;;;;3.92;100.00;99527.41;4984742;28;20400;-86
2020/12/03 11:21:59;;;;;;;29.70;18.63;;;;;;;3.94;100.00;99525.44;4973801;28;20049;-87
2020/12/03 11:24:47;;;;;;;27.67;15.57;;;;;;;3.93;100.00;99521.09;4988616;28;20051;-86
2020/12/03 11:27:18;;;;;;;24.27;14.57;;;;;;;3.92;100.00;99511.47;4987368;28;20085;-86
2020/12/03 11:29:43;;;;;;;24.92;15.00;;;;;;;3.89;100.00;99506.47;4971300;28;20290;-85
2020/12/03 11:32:09;;;;;;;24.90;14.38;;;;;;;3.88;100.00;99503.97;4987824;28;20057;-86